sensor_id;sensor_type;location;lat;lon;timestamp;P1;durP1;ratioP1;P2;durP2;ratioP2
12088;SDS011;6107;49.078;8.578;2023-02-20T00:02:04;9.00;;;4.00;;
12088;SDS011;6107;49.078;8.578;2023-02-20T00:04:29;8.70;;;4.07;;
12088;SDS011;6107;49.078;8.578;2023-02-20T00:06:55;9.17;;;3.97;;
12088;SDS011;6107;49.078;8.578;2023-02-20T00:09:21;11.10;;;4.70;;
12088;SDS011;6107;49.078;8.578;2023-02-20T00:11:46;8.17;;;4.00;;
12088;SDS011;6107;49.078;8.578;2023-02-20T00:14:12;8.23;;;4.13;;
12088;SDS011;6107;49.078;8.578;2023-02-20T00:16:37;10.73;;;4.10;;
12088;SDS011;6107;49.078;8.578;2023-02-20T00:19:03;8.10;;;3.60;;
12088;SDS011;6107;49.078;8.578;2023-02-20T00:21:28;9.27;;;3.80;;
12088;SDS011;6107;49.078;8.578;2023-02-20T00:23:54;11.03;;;3.57;;
12088;SDS011;6107;49.078;8.578;2023-02-20T00:26:19;8.87;;;3.90;;
12088;SDS011;6107;49.078;8.578;2023-02-20T00:28:45;9.40;;;4.07;;
12088;SDS011;6107;49.078;8.578;2023-02-20T00:31:12;12.20;;;4.37;;
12088;SDS011;6107;49.078;8.578;2023-02-20T00:33:39;10.53;;;4.30;;
12088;SDS011;6107;49.078;8.578;2023-02-20T00:36:05;10.23;;;4.33;;
12088;SDS011;6107;49.078;8.578;2023-02-20T00:38:31;7.30;;;3.80;;
12088;SDS011;6107;49.078;8.578;2023-02-20T00:40:56;9.03;;;4.30;;
12088;SDS011;6107;49.078;8.578;2023-02-20T00:43:22;10.10;;;4.10;;
12088;SDS011;6107;49.078;8.578;2023-02-20T00:45:47;9.60;;;4.00;;
12088;SDS011;6107;49.078;8.578;2023-02-20T00:48:13;7.83;;;3.67;;
12088;SDS011;6107;49.078;8.578;2023-02-20T00:50:38;7.03;;;3.60;;
12088;SDS011;6107;49.078;8.578;2023-02-20T00:53:04;10.20;;;4.17;;
12088;SDS011;6107;49.078;8.578;2023-02-20T00:55:29;10.50;;;4.13;;
12088;SDS011;6107;49.078;8.578;2023-02-20T00:57:55;10.07;;;3.93;;
12088;SDS011;6107;49.078;8.578;2023-02-20T01:00:25;6.27;;;3.93;;
12088;SDS011;6107;49.078;8.578;2023-02-20T01:02:52;9.90;;;4.20;;
12088;SDS011;6107;49.078;8.578;2023-02-20T01:05:18;7.90;;;4.37;;
12088;SDS011;6107;49.078;8.578;2023-02-20T01:07:44;6.90;;;4.03;;
12088;SDS011;6107;49.078;8.578;2023-02-20T01:10:09;8.17;;;4.13;;
12088;SDS011;6107;49.078;8.578;2023-02-20T01:12:38;11.93;;;4.30;;
12088;SDS011;6107;49.078;8.578;2023-02-20T01:15:04;12.03;;;4.10;;
12088;SDS011;6107;49.078;8.578;2023-02-20T01:17:30;9.93;;;3.87;;
12088;SDS011;6107;49.078;8.578;2023-02-20T01:19:56;8.80;;;4.43;;
12088;SDS011;6107;49.078;8.578;2023-02-20T01:22:21;10.03;;;3.90;;
12088;SDS011;6107;49.078;8.578;2023-02-20T01:24:47;11.93;;;4.20;;
12088;SDS011;6107;49.078;8.578;2023-02-20T01:27:12;8.83;;;4.40;;
12088;SDS011;6107;49.078;8.578;2023-02-20T01:29:39;9.17;;;4.20;;
12088;SDS011;6107;49.078;8.578;2023-02-20T01:32:04;9.30;;;4.27;;
12088;SDS011;6107;49.078;8.578;2023-02-20T01:34:30;8.77;;;4.47;;
12088;SDS011;6107;49.078;8.578;2023-02-20T01:36:55;11.07;;;4.50;;
12088;SDS011;6107;49.078;8.578;2023-02-20T01:39:22;8.60;;;4.27;;
12088;SDS011;6107;49.078;8.578;2023-02-20T01:41:50;10.07;;;4.27;;
12088;SDS011;6107;49.078;8.578;2023-02-20T01:44:20;8.87;;;4.37;;
12088;SDS011;6107;49.078;8.578;2023-02-20T01:46:49;8.53;;;4.47;;
12088;SDS011;6107;49.078;8.578;2023-02-20T01:49:22;8.43;;;4.30;;
12088;SDS011;6107;49.078;8.578;2023-02-20T01:51:54;9.60;;;4.60;;
12088;SDS011;6107;49.078;8.578;2023-02-20T01:54:26;9.13;;;3.80;;
12088;SDS011;6107;49.078;8.578;2023-02-20T01:56:53;9.43;;;4.40;;
12088;SDS011;6107;49.078;8.578;2023-02-20T01:59:22;9.73;;;4.90;;
12088;SDS011;6107;49.078;8.578;2023-02-20T02:01:51;10.93;;;4.97;;
12088;SDS011;6107;49.078;8.578;2023-02-20T02:04:16;9.30;;;4.67;;
12088;SDS011;6107;49.078;8.578;2023-02-20T02:06:43;8.03;;;4.47;;
12088;SDS011;6107;49.078;8.578;2023-02-20T02:09:15;8.37;;;4.43;;
12088;SDS011;6107;49.078;8.578;2023-02-20T02:11:48;14.17;;;4.63;;
12088;SDS011;6107;49.078;8.578;2023-02-20T02:14:14;9.03;;;4.37;;
12088;SDS011;6107;49.078;8.578;2023-02-20T02:22:34;10.47;;;4.80;;
12088;SDS011;6107;49.078;8.578;2023-02-20T02:25:36;11.67;;;4.60;;
12088;SDS011;6107;49.078;8.578;2023-02-20T02:36:55;9.87;;;4.80;;
12088;SDS011;6107;49.078;8.578;2023-02-20T02:45:16;8.83;;;4.30;;
12088;SDS011;6107;49.078;8.578;2023-02-20T02:50:41;8.03;;;4.33;;
12088;SDS011;6107;49.078;8.578;2023-02-20T02:53:10;13.13;;;4.80;;
12088;SDS011;6107;49.078;8.578;2023-02-20T02:55:37;10.10;;;4.77;;
12088;SDS011;6107;49.078;8.578;2023-02-20T02:58:03;10.83;;;4.63;;
12088;SDS011;6107;49.078;8.578;2023-02-20T03:05:46;9.07;;;4.60;;
12088;SDS011;6107;49.078;8.578;2023-02-20T03:08:21;10.07;;;4.37;;
12088;SDS011;6107;49.078;8.578;2023-02-20T03:10:54;10.03;;;4.20;;
12088;SDS011;6107;49.078;8.578;2023-02-20T03:13:48;9.80;;;4.60;;
12088;SDS011;6107;49.078;8.578;2023-02-20T03:16:41;10.83;;;4.80;;
12088;SDS011;6107;49.078;8.578;2023-02-20T03:19:29;13.83;;;4.50;;
12088;SDS011;6107;49.078;8.578;2023-02-20T03:21:59;9.83;;;4.43;;
12088;SDS011;6107;49.078;8.578;2023-02-20T03:24:29;10.30;;;4.43;;
12088;SDS011;6107;49.078;8.578;2023-02-20T03:27:17;11.07;;;4.47;;
12088;SDS011;6107;49.078;8.578;2023-02-20T03:29:43;13.23;;;4.57;;
12088;SDS011;6107;49.078;8.578;2023-02-20T03:32:09;11.20;;;4.57;;
12088;SDS011;6107;49.078;8.578;2023-02-20T03:34:54;11.33;;;4.60;;
12088;SDS011;6107;49.078;8.578;2023-02-20T03:37:41;13.40;;;5.00;;
12088;SDS011;6107;49.078;8.578;2023-02-20T03:40:27;11.47;;;4.40;;
12088;SDS011;6107;49.078;8.578;2023-02-20T03:43:14;12.53;;;4.80;;
12088;SDS011;6107;49.078;8.578;2023-02-20T03:45:46;8.17;;;5.23;;
12088;SDS011;6107;49.078;8.578;2023-02-20T03:48:26;8.73;;;4.33;;
12088;SDS011;6107;49.078;8.578;2023-02-20T03:51:04;8.53;;;4.57;;
12088;SDS011;6107;49.078;8.578;2023-02-20T03:53:49;12.97;;;4.93;;
12088;SDS011;6107;49.078;8.578;2023-02-20T03:56:19;10.77;;;4.60;;
12088;SDS011;6107;49.078;8.578;2023-02-20T03:58:53;11.30;;;4.77;;
12088;SDS011;6107;49.078;8.578;2023-02-20T04:01:22;13.77;;;5.27;;
12088;SDS011;6107;49.078;8.578;2023-02-20T04:03:50;12.03;;;5.53;;
12088;SDS011;6107;49.078;8.578;2023-02-20T04:06:19;8.60;;;4.37;;
12088;SDS011;6107;49.078;8.578;2023-02-20T04:08:57;12.93;;;4.70;;
12088;SDS011;6107;49.078;8.578;2023-02-20T04:11:42;10.20;;;4.60;;
12088;SDS011;6107;49.078;8.578;2023-02-20T04:14:13;10.60;;;4.10;;
12088;SDS011;6107;49.078;8.578;2023-02-20T04:16:43;7.33;;;4.30;;
12088;SDS011;6107;49.078;8.578;2023-02-20T04:19:13;9.63;;;4.47;;
12088;SDS011;6107;49.078;8.578;2023-02-20T04:21:40;6.77;;;4.37;;
12088;SDS011;6107;49.078;8.578;2023-02-20T04:24:22;9.00;;;4.67;;
12088;SDS011;6107;49.078;8.578;2023-02-20T04:26:53;10.63;;;4.17;;
12088;SDS011;6107;49.078;8.578;2023-02-20T04:29:19;10.37;;;4.67;;
12088;SDS011;6107;49.078;8.578;2023-02-20T04:31:45;8.10;;;4.43;;
12088;SDS011;6107;49.078;8.578;2023-02-20T04:34:10;11.70;;;4.83;;
12088;SDS011;6107;49.078;8.578;2023-02-20T04:36:36;10.20;;;5.13;;
12088;SDS011;6107;49.078;8.578;2023-02-20T04:39:01;9.00;;;4.47;;
12088;SDS011;6107;49.078;8.578;2023-02-20T04:41:27;9.40;;;4.77;;
12088;SDS011;6107;49.078;8.578;2023-02-20T04:43:52;10.33;;;4.70;;
12088;SDS011;6107;49.078;8.578;2023-02-20T04:46:38;9.97;;;5.47;;
12088;SDS011;6107;49.078;8.578;2023-02-20T04:49:03;12.07;;;5.40;;
12088;SDS011;6107;49.078;8.578;2023-02-20T04:51:29;7.90;;;4.73;;
12088;SDS011;6107;49.078;8.578;2023-02-20T04:53:55;9.77;;;4.73;;
12088;SDS011;6107;49.078;8.578;2023-02-20T04:56:21;12.97;;;5.43;;
12088;SDS011;6107;49.078;8.578;2023-02-20T04:58:46;11.00;;;5.27;;
12088;SDS011;6107;49.078;8.578;2023-02-20T05:01:13;13.27;;;5.97;;
12088;SDS011;6107;49.078;8.578;2023-02-20T05:03:39;13.73;;;6.10;;
12088;SDS011;6107;49.078;8.578;2023-02-20T05:06:05;8.67;;;5.33;;
12088;SDS011;6107;49.078;8.578;2023-02-20T05:08:31;11.63;;;5.30;;
12088;SDS011;6107;49.078;8.578;2023-02-20T05:10:56;14.20;;;5.70;;
12088;SDS011;6107;49.078;8.578;2023-02-20T05:13:22;10.90;;;4.97;;
12088;SDS011;6107;49.078;8.578;2023-02-20T05:15:47;8.93;;;4.97;;
12088;SDS011;6107;49.078;8.578;2023-02-20T05:18:13;10.63;;;5.07;;
12088;SDS011;6107;49.078;8.578;2023-02-20T05:20:47;11.63;;;4.90;;
12088;SDS011;6107;49.078;8.578;2023-02-20T05:23:31;12.07;;;5.00;;
12088;SDS011;6107;49.078;8.578;2023-02-20T05:25:56;9.90;;;5.80;;
12088;SDS011;6107;49.078;8.578;2023-02-20T05:28:22;12.70;;;5.07;;
12088;SDS011;6107;49.078;8.578;2023-02-20T05:30:47;10.60;;;5.40;;
12088;SDS011;6107;49.078;8.578;2023-02-20T05:33:13;13.97;;;5.50;;
12088;SDS011;6107;49.078;8.578;2023-02-20T05:35:38;12.50;;;5.23;;
12088;SDS011;6107;49.078;8.578;2023-02-20T05:38:04;9.03;;;5.27;;
12088;SDS011;6107;49.078;8.578;2023-02-20T05:40:30;10.47;;;5.60;;
12088;SDS011;6107;49.078;8.578;2023-02-20T05:42:56;9.40;;;4.97;;
12088;SDS011;6107;49.078;8.578;2023-02-20T05:45:21;12.37;;;5.90;;
12088;SDS011;6107;49.078;8.578;2023-02-20T05:47:47;9.80;;;5.73;;
12088;SDS011;6107;49.078;8.578;2023-02-20T05:50:12;11.60;;;5.60;;
12088;SDS011;6107;49.078;8.578;2023-02-20T05:52:38;10.57;;;5.93;;
12088;SDS011;6107;49.078;8.578;2023-02-20T05:55:05;10.83;;;5.40;;
12088;SDS011;6107;49.078;8.578;2023-02-20T05:57:31;12.23;;;6.20;;
12088;SDS011;6107;49.078;8.578;2023-02-20T05:59:56;14.27;;;6.20;;
12088;SDS011;6107;49.078;8.578;2023-02-20T06:02:21;12.97;;;5.80;;
12088;SDS011;6107;49.078;8.578;2023-02-20T06:04:47;12.80;;;5.83;;
12088;SDS011;6107;49.078;8.578;2023-02-20T06:07:13;15.87;;;5.77;;
12088;SDS011;6107;49.078;8.578;2023-02-20T06:09:42;9.83;;;5.67;;
12088;SDS011;6107;49.078;8.578;2023-02-20T06:12:08;14.03;;;5.90;;
12088;SDS011;6107;49.078;8.578;2023-02-20T06:14:33;13.97;;;6.00;;
12088;SDS011;6107;49.078;8.578;2023-02-20T06:16:59;15.60;;;6.10;;
12088;SDS011;6107;49.078;8.578;2023-02-20T06:19:24;11.43;;;5.73;;
12088;SDS011;6107;49.078;8.578;2023-02-20T06:21:51;16.03;;;5.90;;
12088;SDS011;6107;49.078;8.578;2023-02-20T06:24:17;12.50;;;6.40;;
12088;SDS011;6107;49.078;8.578;2023-02-20T06:26:43;12.50;;;5.90;;
12088;SDS011;6107;49.078;8.578;2023-02-20T06:29:09;11.00;;;5.53;;
12088;SDS011;6107;49.078;8.578;2023-02-20T06:31:36;11.00;;;5.40;;
12088;SDS011;6107;49.078;8.578;2023-02-20T06:34:02;10.33;;;5.50;;
12088;SDS011;6107;49.078;8.578;2023-02-20T06:36:32;11.03;;;5.40;;
12088;SDS011;6107;49.078;8.578;2023-02-20T06:38:59;11.37;;;5.20;;
12088;SDS011;6107;49.078;8.578;2023-02-20T06:41:25;11.20;;;5.53;;
12088;SDS011;6107;49.078;8.578;2023-02-20T06:43:51;8.77;;;5.10;;
12088;SDS011;6107;49.078;8.578;2023-02-20T06:46:16;12.23;;;5.20;;
12088;SDS011;6107;49.078;8.578;2023-02-20T06:48:43;10.17;;;5.40;;
12088;SDS011;6107;49.078;8.578;2023-02-20T06:51:09;10.23;;;5.63;;
12088;SDS011;6107;49.078;8.578;2023-02-20T06:53:34;14.23;;;6.30;;
12088;SDS011;6107;49.078;8.578;2023-02-20T06:56:05;10.97;;;5.03;;
12088;SDS011;6107;49.078;8.578;2023-02-20T06:58:31;11.00;;;5.10;;
12088;SDS011;6107;49.078;8.578;2023-02-20T07:00:57;14.03;;;5.57;;
12088;SDS011;6107;49.078;8.578;2023-02-20T07:03:23;12.57;;;5.30;;
12088;SDS011;6107;49.078;8.578;2023-02-20T07:05:49;9.73;;;5.60;;
12088;SDS011;6107;49.078;8.578;2023-02-20T07:08:14;14.57;;;5.50;;
12088;SDS011;6107;49.078;8.578;2023-02-20T07:10:40;10.00;;;5.03;;
12088;SDS011;6107;49.078;8.578;2023-02-20T07:13:05;10.47;;;5.30;;
12088;SDS011;6107;49.078;8.578;2023-02-20T07:15:31;11.33;;;5.00;;
12088;SDS011;6107;49.078;8.578;2023-02-20T07:17:56;10.43;;;4.83;;
12088;SDS011;6107;49.078;8.578;2023-02-20T07:20:22;9.70;;;4.93;;
12088;SDS011;6107;49.078;8.578;2023-02-20T07:22:48;9.23;;;5.20;;
12088;SDS011;6107;49.078;8.578;2023-02-20T07:25:18;8.23;;;5.13;;
12088;SDS011;6107;49.078;8.578;2023-02-20T07:27:44;13.70;;;5.10;;
12088;SDS011;6107;49.078;8.578;2023-02-20T07:30:10;8.40;;;5.13;;
12088;SDS011;6107;49.078;8.578;2023-02-20T07:32:36;8.30;;;4.37;;
12088;SDS011;6107;49.078;8.578;2023-02-20T07:35:01;9.97;;;5.00;;
12088;SDS011;6107;49.078;8.578;2023-02-20T07:37:27;8.97;;;4.90;;
12088;SDS011;6107;49.078;8.578;2023-02-20T07:39:53;8.60;;;4.70;;
12088;SDS011;6107;49.078;8.578;2023-02-20T07:42:18;12.37;;;4.80;;
12088;SDS011;6107;49.078;8.578;2023-02-20T07:44:44;9.00;;;4.60;;
12088;SDS011;6107;49.078;8.578;2023-02-20T07:47:13;11.93;;;4.70;;
12088;SDS011;6107;49.078;8.578;2023-02-20T07:49:39;8.47;;;5.17;;
12088;SDS011;6107;49.078;8.578;2023-02-20T07:52:04;10.07;;;4.50;;
12088;SDS011;6107;49.078;8.578;2023-02-20T07:54:30;12.13;;;5.10;;
12088;SDS011;6107;49.078;8.578;2023-02-20T07:56:55;8.67;;;5.13;;
12088;SDS011;6107;49.078;8.578;2023-02-20T07:59:21;9.27;;;4.97;;
12088;SDS011;6107;49.078;8.578;2023-02-20T08:01:47;8.47;;;4.80;;
12088;SDS011;6107;49.078;8.578;2023-02-20T08:04:12;7.83;;;4.73;;
12088;SDS011;6107;49.078;8.578;2023-02-20T08:06:38;11.63;;;4.77;;
12088;SDS011;6107;49.078;8.578;2023-02-20T08:09:03;9.13;;;4.60;;
12088;SDS011;6107;49.078;8.578;2023-02-20T08:11:31;11.03;;;4.87;;
12088;SDS011;6107;49.078;8.578;2023-02-20T08:13:58;11.30;;;5.10;;
12088;SDS011;6107;49.078;8.578;2023-02-20T08:16:23;11.37;;;4.50;;
12088;SDS011;6107;49.078;8.578;2023-02-20T08:18:50;10.50;;;4.90;;
12088;SDS011;6107;49.078;8.578;2023-02-20T08:21:16;8.10;;;4.53;;
12088;SDS011;6107;49.078;8.578;2023-02-20T08:23:42;7.87;;;4.37;;
12088;SDS011;6107;49.078;8.578;2023-02-20T08:26:08;14.37;;;4.43;;
12088;SDS011;6107;49.078;8.578;2023-02-20T08:28:34;9.30;;;4.67;;
12088;SDS011;6107;49.078;8.578;2023-02-20T08:30:59;8.53;;;4.40;;
12088;SDS011;6107;49.078;8.578;2023-02-20T08:33:25;6.87;;;4.53;;
12088;SDS011;6107;49.078;8.578;2023-02-20T08:35:51;8.00;;;4.10;;
12088;SDS011;6107;49.078;8.578;2023-02-20T08:38:28;9.87;;;4.40;;
12088;SDS011;6107;49.078;8.578;2023-02-20T08:40:57;7.03;;;3.90;;
12088;SDS011;6107;49.078;8.578;2023-02-20T08:43:23;7.13;;;3.73;;
12088;SDS011;6107;49.078;8.578;2023-02-20T08:45:49;8.53;;;4.10;;
12088;SDS011;6107;49.078;8.578;2023-02-20T08:48:15;8.40;;;4.10;;
12088;SDS011;6107;49.078;8.578;2023-02-20T08:50:40;6.93;;;4.27;;
12088;SDS011;6107;49.078;8.578;2023-02-20T08:53:06;10.07;;;4.33;;
12088;SDS011;6107;49.078;8.578;2023-02-20T08:55:31;8.30;;;4.10;;
12088;SDS011;6107;49.078;8.578;2023-02-20T08:57:57;9.33;;;4.00;;
12088;SDS011;6107;49.078;8.578;2023-02-20T09:00:22;7.53;;;3.80;;
12088;SDS011;6107;49.078;8.578;2023-02-20T09:02:48;10.30;;;3.77;;
12088;SDS011;6107;49.078;8.578;2023-02-20T09:05:14;7.50;;;3.83;;
12088;SDS011;6107;49.078;8.578;2023-02-20T09:07:40;10.30;;;3.93;;
12088;SDS011;6107;49.078;8.578;2023-02-20T09:10:06;8.53;;;3.63;;
12088;SDS011;6107;49.078;8.578;2023-02-20T09:12:33;12.80;;;4.53;;
12088;SDS011;6107;49.078;8.578;2023-02-20T09:14:58;9.10;;;3.73;;
12088;SDS011;6107;49.078;8.578;2023-02-20T09:17:25;6.80;;;3.43;;
12088;SDS011;6107;49.078;8.578;2023-02-20T09:19:51;9.33;;;3.37;;
12088;SDS011;6107;49.078;8.578;2023-02-20T09:22:20;7.60;;;3.17;;
12088;SDS011;6107;49.078;8.578;2023-02-20T09:24:50;6.50;;;3.70;;
12088;SDS011;6107;49.078;8.578;2023-02-20T09:27:16;7.47;;;3.63;;
12088;SDS011;6107;49.078;8.578;2023-02-20T09:29:43;7.87;;;3.47;;
12088;SDS011;6107;49.078;8.578;2023-02-20T09:32:09;9.13;;;3.70;;
12088;SDS011;6107;49.078;8.578;2023-02-20T09:34:35;7.77;;;3.20;;
12088;SDS011;6107;49.078;8.578;2023-02-20T09:37:01;6.93;;;3.30;;
12088;SDS011;6107;49.078;8.578;2023-02-20T09:39:28;6.03;;;2.83;;
12088;SDS011;6107;49.078;8.578;2023-02-20T09:49:40;7.87;;;3.30;;
12088;SDS011;6107;49.078;8.578;2023-02-20T09:52:09;8.87;;;3.33;;
12088;SDS011;6107;49.078;8.578;2023-02-20T09:54:41;4.60;;;2.90;;
12088;SDS011;6107;49.078;8.578;2023-02-20T09:57:15;8.17;;;3.60;;
12088;SDS011;6107;49.078;8.578;2023-02-20T09:59:45;7.43;;;2.77;;
12088;SDS011;6107;49.078;8.578;2023-02-20T10:02:17;5.80;;;2.67;;
12088;SDS011;6107;49.078;8.578;2023-02-20T10:04:45;6.23;;;2.70;;
12088;SDS011;6107;49.078;8.578;2023-02-20T10:07:15;8.67;;;2.67;;
12088;SDS011;6107;49.078;8.578;2023-02-20T10:09:45;4.87;;;2.37;;
12088;SDS011;6107;49.078;8.578;2023-02-20T10:12:55;5.57;;;2.90;;
12088;SDS011;6107;49.078;8.578;2023-02-20T10:17:47;6.17;;;2.60;;
12088;SDS011;6107;49.078;8.578;2023-02-20T10:20:32;4.57;;;2.57;;
12088;SDS011;6107;49.078;8.578;2023-02-20T10:25:53;6.53;;;2.43;;
12088;SDS011;6107;49.078;8.578;2023-02-20T10:28:21;9.23;;;2.53;;
12088;SDS011;6107;49.078;8.578;2023-02-20T10:33:32;6.23;;;2.30;;
12088;SDS011;6107;49.078;8.578;2023-02-20T10:36:03;4.63;;;2.00;;
12088;SDS011;6107;49.078;8.578;2023-02-20T10:38:37;9.13;;;2.73;;
12088;SDS011;6107;49.078;8.578;2023-02-20T10:41:09;6.33;;;2.20;;
12088;SDS011;6107;49.078;8.578;2023-02-20T10:43:55;7.50;;;2.10;;
12088;SDS011;6107;49.078;8.578;2023-02-20T10:49:08;6.53;;;2.07;;
12088;SDS011;6107;49.078;8.578;2023-02-20T10:51:39;7.37;;;2.87;;
12088;SDS011;6107;49.078;8.578;2023-02-20T10:57:02;8.77;;;4.27;;
12088;SDS011;6107;49.078;8.578;2023-02-20T10:59:28;8.13;;;3.43;;
12088;SDS011;6107;49.078;8.578;2023-02-20T11:01:55;10.77;;;4.10;;
12088;SDS011;6107;49.078;8.578;2023-02-20T11:04:31;8.37;;;4.07;;
12088;SDS011;6107;49.078;8.578;2023-02-20T11:07:09;11.60;;;3.73;;
12088;SDS011;6107;49.078;8.578;2023-02-20T11:09:39;9.67;;;4.10;;
12088;SDS011;6107;49.078;8.578;2023-02-20T11:12:05;4.53;;;3.00;;
12088;SDS011;6107;49.078;8.578;2023-02-20T11:14:32;7.23;;;3.93;;
12088;SDS011;6107;49.078;8.578;2023-02-20T11:17:09;8.20;;;3.73;;
12088;SDS011;6107;49.078;8.578;2023-02-20T11:19:42;10.10;;;4.27;;
12088;SDS011;6107;49.078;8.578;2023-02-20T11:22:08;8.57;;;4.53;;
12088;SDS011;6107;49.078;8.578;2023-02-20T11:24:35;11.60;;;4.70;;
12088;SDS011;6107;49.078;8.578;2023-02-20T11:27:05;5.93;;;3.87;;
12088;SDS011;6107;49.078;8.578;2023-02-20T11:29:34;7.53;;;3.73;;
12088;SDS011;6107;49.078;8.578;2023-02-20T11:32:13;9.03;;;3.93;;
12088;SDS011;6107;49.078;8.578;2023-02-20T11:34:40;8.23;;;3.60;;
12088;SDS011;6107;49.078;8.578;2023-02-20T11:37:06;6.13;;;3.40;;
12088;SDS011;6107;49.078;8.578;2023-02-20T11:39:32;7.47;;;3.70;;
12088;SDS011;6107;49.078;8.578;2023-02-20T11:44:30;7.27;;;3.43;;
12088;SDS011;6107;49.078;8.578;2023-02-20T11:47:17;9.13;;;4.20;;
12088;SDS011;6107;49.078;8.578;2023-02-20T11:49:45;7.27;;;3.57;;
12088;SDS011;6107;49.078;8.578;2023-02-20T11:54:41;11.03;;;3.80;;
12088;SDS011;6107;49.078;8.578;2023-02-20T12:00:10;10.97;;;4.40;;
12088;SDS011;6107;49.078;8.578;2023-02-20T12:02:46;6.33;;;3.83;;
12088;SDS011;6107;49.078;8.578;2023-02-20T12:05:13;7.57;;;3.70;;
12088;SDS011;6107;49.078;8.578;2023-02-20T12:07:53;7.25;;;3.83;;
12088;SDS011;6107;49.078;8.578;2023-02-20T12:10:38;6.07;;;3.80;;
12088;SDS011;6107;49.078;8.578;2023-02-20T12:13:06;6.90;;;3.60;;
12088;SDS011;6107;49.078;8.578;2023-02-20T12:15:37;6.90;;;3.70;;
12088;SDS011;6107;49.078;8.578;2023-02-20T12:18:09;9.32;;;3.53;;
12088;SDS011;6107;49.078;8.578;2023-02-20T12:20:47;9.27;;;3.75;;
12088;SDS011;6107;49.078;8.578;2023-02-20T12:23:23;7.05;;;3.92;;
12088;SDS011;6107;49.078;8.578;2023-02-20T12:26:01;7.78;;;3.63;;
12088;SDS011;6107;49.078;8.578;2023-02-20T12:31:30;9.43;;;3.80;;
12088;SDS011;6107;49.078;8.578;2023-02-20T12:36:39;9.30;;;3.78;;
12088;SDS011;6107;49.078;8.578;2023-02-20T12:41:47;7.15;;;3.42;;
12088;SDS011;6107;49.078;8.578;2023-02-20T12:47:03;6.45;;;3.35;;
12088;SDS011;6107;49.078;8.578;2023-02-20T13:02:30;8.35;;;3.88;;
12088;SDS011;6107;49.078;8.578;2023-02-20T13:04:57;10.07;;;4.75;;
12088;SDS011;6107;49.078;8.578;2023-02-20T13:07:25;10.88;;;4.57;;
12088;SDS011;6107;49.078;8.578;2023-02-20T13:12:18;7.50;;;4.43;;
12088;SDS011;6107;49.078;8.578;2023-02-20T13:14:54;7.40;;;4.45;;
12088;SDS011;6107;49.078;8.578;2023-02-20T13:17:41;12.18;;;4.35;;
12088;SDS011;6107;49.078;8.578;2023-02-20T13:20:18;10.07;;;4.40;;
12088;SDS011;6107;49.078;8.578;2023-02-20T13:27:58;11.10;;;5.32;;
12088;SDS011;6107;49.078;8.578;2023-02-20T13:30:25;7.30;;;4.28;;
12088;SDS011;6107;49.078;8.578;2023-02-20T13:33:09;10.00;;;5.32;;
12088;SDS011;6107;49.078;8.578;2023-02-20T13:38:17;7.20;;;4.43;;
12088;SDS011;6107;49.078;8.578;2023-02-20T13:41:01;9.77;;;4.47;;
12088;SDS011;6107;49.078;8.578;2023-02-20T13:43:29;8.98;;;4.47;;
12088;SDS011;6107;49.078;8.578;2023-02-20T13:53:50;7.40;;;4.38;;
12088;SDS011;6107;49.078;8.578;2023-02-20T13:59:09;10.43;;;4.93;;
12088;SDS011;6107;49.078;8.578;2023-02-20T14:04:19;11.18;;;4.10;;
12088;SDS011;6107;49.078;8.578;2023-02-20T14:06:49;6.82;;;3.95;;
12088;SDS011;6107;49.078;8.578;2023-02-20T14:09:18;11.65;;;4.13;;
12088;SDS011;6107;49.078;8.578;2023-02-20T14:11:51;7.85;;;4.03;;
12088;SDS011;6107;49.078;8.578;2023-02-20T14:14:23;7.28;;;3.10;;
12088;SDS011;6107;49.078;8.578;2023-02-20T14:17:00;7.55;;;3.58;;
12088;SDS011;6107;49.078;8.578;2023-02-20T14:19:48;10.40;;;3.50;;
12088;SDS011;6107;49.078;8.578;2023-02-20T14:24:45;8.57;;;3.72;;
12088;SDS011;6107;49.078;8.578;2023-02-20T14:27:27;9.13;;;3.45;;
12088;SDS011;6107;49.078;8.578;2023-02-20T14:30:06;7.32;;;3.28;;
12088;SDS011;6107;49.078;8.578;2023-02-20T14:32:35;6.78;;;2.88;;
12088;SDS011;6107;49.078;8.578;2023-02-20T14:35:05;9.70;;;3.22;;
12088;SDS011;6107;49.078;8.578;2023-02-20T14:37:43;6.63;;;2.83;;
12088;SDS011;6107;49.078;8.578;2023-02-20T14:40:30;6.47;;;3.00;;
12088;SDS011;6107;49.078;8.578;2023-02-20T14:43:00;5.18;;;3.38;;
12088;SDS011;6107;49.078;8.578;2023-02-20T14:45:27;4.55;;;2.60;;
12088;SDS011;6107;49.078;8.578;2023-02-20T14:47:54;5.68;;;2.45;;
12088;SDS011;6107;49.078;8.578;2023-02-20T14:50:23;4.72;;;2.40;;
12088;SDS011;6107;49.078;8.578;2023-02-20T14:53:11;6.05;;;2.70;;
12088;SDS011;6107;49.078;8.578;2023-02-20T14:55:50;3.92;;;2.30;;
12088;SDS011;6107;49.078;8.578;2023-02-20T14:58:17;5.50;;;2.60;;
12088;SDS011;6107;49.078;8.578;2023-02-20T15:00:47;5.97;;;2.47;;
12088;SDS011;6107;49.078;8.578;2023-02-20T15:03:20;5.00;;;2.80;;
12088;SDS011;6107;49.078;8.578;2023-02-20T15:05:48;7.95;;;3.03;;
12088;SDS011;6107;49.078;8.578;2023-02-20T15:10:49;4.90;;;2.80;;
12088;SDS011;6107;49.078;8.578;2023-02-20T15:13:26;7.82;;;2.88;;
12088;SDS011;6107;49.078;8.578;2023-02-20T15:16:11;5.15;;;2.47;;
12088;SDS011;6107;49.078;8.578;2023-02-20T15:18:42;5.72;;;2.33;;
12088;SDS011;6107;49.078;8.578;2023-02-20T15:21:13;7.68;;;2.50;;
12088;SDS011;6107;49.078;8.578;2023-02-20T15:23:53;6.20;;;2.47;;
12088;SDS011;6107;49.078;8.578;2023-02-20T15:26:32;4.35;;;2.40;;
12088;SDS011;6107;49.078;8.578;2023-02-20T15:29:11;3.67;;;2.08;;
12088;SDS011;6107;49.078;8.578;2023-02-20T15:31:45;4.45;;;2.03;;
12088;SDS011;6107;49.078;8.578;2023-02-20T15:34:29;5.50;;;2.15;;
12088;SDS011;6107;49.078;8.578;2023-02-20T15:36:58;5.88;;;2.65;;
12088;SDS011;6107;49.078;8.578;2023-02-20T15:39:24;3.97;;;2.40;;
12088;SDS011;6107;49.078;8.578;2023-02-20T15:41:50;4.78;;;2.42;;
12088;SDS011;6107;49.078;8.578;2023-02-20T15:44:17;6.63;;;2.90;;
12088;SDS011;6107;49.078;8.578;2023-02-20T15:46:42;5.47;;;2.75;;
12088;SDS011;6107;49.078;8.578;2023-02-20T15:49:08;7.95;;;3.10;;
12088;SDS011;6107;49.078;8.578;2023-02-20T15:51:35;6.93;;;3.15;;
12088;SDS011;6107;49.078;8.578;2023-02-20T15:54:03;5.13;;;2.85;;
12088;SDS011;6107;49.078;8.578;2023-02-20T15:56:31;5.88;;;2.75;;
12088;SDS011;6107;49.078;8.578;2023-02-20T15:59:04;6.32;;;3.05;;
12088;SDS011;6107;49.078;8.578;2023-02-20T16:01:32;9.23;;;2.90;;
12088;SDS011;6107;49.078;8.578;2023-02-20T16:03:58;6.20;;;2.72;;
12088;SDS011;6107;49.078;8.578;2023-02-20T16:06:23;8.88;;;2.63;;
12088;SDS011;6107;49.078;8.578;2023-02-20T16:08:50;4.07;;;3.20;;
12088;SDS011;6107;49.078;8.578;2023-02-20T16:11:20;6.78;;;2.78;;
12088;SDS011;6107;49.078;8.578;2023-02-20T16:13:54;6.97;;;3.50;;
12088;SDS011;6107;49.078;8.578;2023-02-20T16:18:56;8.53;;;2.83;;
12088;SDS011;6107;49.078;8.578;2023-02-20T16:21:22;6.97;;;2.80;;
12088;SDS011;6107;49.078;8.578;2023-02-20T16:23:48;5.30;;;3.10;;
12088;SDS011;6107;49.078;8.578;2023-02-20T16:26:17;6.07;;;2.97;;
12088;SDS011;6107;49.078;8.578;2023-02-20T16:29:30;7.53;;;2.50;;
12088;SDS011;6107;49.078;8.578;2023-02-20T16:34:18;15.63;;;8.10;;
12088;SDS011;6107;49.078;8.578;2023-02-20T16:36:44;8.63;;;3.83;;
12088;SDS011;6107;49.078;8.578;2023-02-20T16:39:10;8.47;;;3.20;;
12088;SDS011;6107;49.078;8.578;2023-02-20T16:41:35;7.83;;;3.50;;
12088;SDS011;6107;49.078;8.578;2023-02-20T16:44:01;6.03;;;2.70;;
12088;SDS011;6107;49.078;8.578;2023-02-20T16:46:26;5.90;;;2.60;;
12088;SDS011;6107;49.078;8.578;2023-02-20T16:48:52;6.53;;;2.67;;
12088;SDS011;6107;49.078;8.578;2023-02-20T16:51:18;6.87;;;3.17;;
12088;SDS011;6107;49.078;8.578;2023-02-20T16:53:45;4.97;;;2.30;;
12088;SDS011;6107;49.078;8.578;2023-02-20T16:56:11;4.33;;;2.63;;
12088;SDS011;6107;49.078;8.578;2023-02-20T16:58:37;8.17;;;2.47;;
12088;SDS011;6107;49.078;8.578;2023-02-20T17:01:02;7.47;;;2.90;;
12088;SDS011;6107;49.078;8.578;2023-02-20T17:03:28;6.07;;;2.87;;
12088;SDS011;6107;49.078;8.578;2023-02-20T17:05:56;6.80;;;2.53;;